Runnells, IA (50237)

7:18 AM CDT on April 25, 2015 (GMT -0500)
Keith & Patty's Pleasant Hill Weather | | Change Station
CLOSE
Current Station
Personal Weather Station
Location: Pleasant Hill, IA
Elevation: 922 ft
Nearby Weather Stations

Elev 922 ft 41.58 °N, 93.50 °W | Updated 9 seconds ago

Rain
Rain
43.2 °F
Feels Like 41 °F
N
4.0
Wind Variable Wind from East
Gusts 8.0 mph

Today
High -- | Low -- °F
--% Chance of Precip.
Yesterday
High -- | Low -- °F
Precip. -- in
6:19 AM 8:04 PM
Waxing Crescent, 45% visible
Pressure 29.60 in
Visibility 2.5 miles
Clouds Mostly Cloudy 700 ft
Overcast 1000 ft
Windchill 41 °F
Dew Point 42 °F
Humidity 95%
Rainfall 0.35 in
Snow Depth Not available.
UV 0 out of 12
Pollen 10.30 out of 12
Air Quality Not available.
Flu Activity Local Activity
METAR KIKV 251155Z AUTO 06011G17KT 2 1/2SM -RA BKN007 OVC010 07/07 A2960 RMK AO2 P0006

More Conditions Fewer Conditions

Pressure 29.60 in
Visibility 2.5 miles
Clouds Mostly Cloudy 700 ft
Overcast 1000 ft
Windchill 41 °F
Dew Point 42 °F
Humidity 95%
Rainfall 0.35 in
Snow Depth Not available.
UV 0 out of 12
Pollen 10.30 out of 12
Air Quality Not available.
Flu Activity Local Activity
METAR KIKV 251155Z AUTO 06011G17KT 2 1/2SM -RA BKN007 OVC010 07/07 A2960 RMK AO2 P0006

More Conditions Fewer Conditions

10-Day Weather Forecast

Almanac

Astronomy

Apr. 25, 2015 Rise Set
Actual Time
Civil Twilight
Nautical Twilight
Astronomical Twilight
Moon
Length of Visible Light
Length of Day
Tomorrow will be .
, % of the Moon is Illuminated

Today's Extremes

State Highs State Lows

Community

WunderPhotos

Upload Photos

1,816,643 photos uploaded!

WunderBlogs® & News

Nearby

Air Quality

  Air Quality AQ Index Pollutant
Not available.

Snow Depth

Station Depth Elevation

Earthquake Activity

City Distance Mag. Time & Date
Minimum magnitude displayed is 2.5.

Coastal Water Temperatures

Place Temperature

Stations

Nearby Weather Stations

Station Location Temp. Windchill Dew Point Humidity Wind Precip. Elev Updated Type